• Join FlightAware (Why Join?)
  • Login
  • US Flag 
03:38AM EDT


 

Airport Tracker/Info


-or-


 

Live Flight TrackerFlight Track Log ✈ N830QS ✈ 15-Aug-2013 ✈ KMRY - O26

Flight Track Log - Related Links

Times and Time Zones

All times are in EDT time to prevent confusion due to time zone crossing. See the N830QS flight status page for this flight to view local times or setup timezone preferences in your user account.

Time Position Orientation Groundspeed Altitude Reporting Facility
EDT Latitude Longitude Course Direction KTS MPH feet Rate Location/Type
09:20AM 36.5764 -121.7856 84° East 227 261 3,100  Level Oakland Center
09:21AM 36.5908 -121.6867 80° East 236 272 6,100 3,000 Climbing Oakland Center
09:22AM 36.6044 -121.5878 80° East 264 304 9,300 3,180 Climbing Oakland Center
09:23AM 36.6186 -121.4842 80° East 288 331 12,600 2,940 Climbing Oakland Center
09:24AM 36.6339 -121.3761 80° East 304 350 15,300 2,520 Climbing Oakland Center
09:25AM 36.6765 -121.2224 84° East  Level FlightAware Approximate
09:25AM 36.6500 -121.2650 80° East 317 365 17,700  Level Oakland Center
09:26AM 36.6661 -121.1492 80° East 329 379 19,900 1,920 Climbing Oakland Center
09:27AM 36.6817 -121.0267 81° East 347 399 21,700 1,500 Climbing Oakland Center
09:28AM 36.6994 -120.8981 80° East 368 423 23,000 600 Climbing Oakland Center
09:29AM 36.7186 -120.7581 80° East 397 457 23,000  Level Oakland Center
09:30AM 36.7444 -120.6192 77° East 406 467 23,000  Level Oakland Center
09:31AM 36.7686 -120.4833 77° East 406 467 23,000  Level Oakland Center
09:32AM 36.7925 -120.3481 78° East 403 464 23,000  Level Oakland Center
09:33AM 36.8156 -120.2122 78° East 400 460 23,000  Level Oakland Center
09:34AM 36.8394 -120.0772 77° East 398 458 23,000  Level Oakland Center
09:35AM 36.8628 -119.9414 78° East 400 460 23,000  Level Oakland Center
09:36AM 36.8828 -119.8061 79° East 398 458 23,000  Level Oakland Center
09:37AM 36.8617 -119.6692 101° East 403 464 23,000  Level Oakland Center
09:38AM 36.8392 -119.5353 102° East 396 456 23,000 -60 Level Oakland Center
09:39AM 36.8186 -119.4003 101° East 396 456 22,900 -900 Descending Oakland Center
09:40AM 36.7961 -119.2617 101° East 405 466 21,300 -1,860 Descending Oakland Center
09:41AM 36.7703 -119.1031 101° East 393 452 19,200 -1,920 Descending Oakland Center
09:42AM 36.7503 -118.9778 101° East 375 432 17,400 -1,140 Descending Oakland Center
09:43AM 36.7314 -118.8611 101° East 344 396 17,000 -240 Descending Oakland Center
09:44AM 36.7117 -118.7461 102° East 341 392 17,000 -60 Level Oakland Center
09:45AM 36.6933 -118.6350 102° East 331 381 16,900 -60 Descending Oakland Center
09:46AM 36.6794 -118.5406 100° East 278 320 16,900  Level Oakland Center
09:47AM 36.6678 -118.4553 100° East 252 290 17,000  Climbing Oakland Center
09:48AM 36.6569 -118.3694 99° East 250 288 17,000  Level Oakland Center
09:49AM 36.6453 -118.2792 99° East 258 297 17,000 -120 Level Oakland Center
09:50AM 36.6314 -118.1872 101° East 264 304 16,800 -1,140 Descending Oakland Center
09:51AM 36.6150 -118.1011 103° East 259 298 14,700 -1,440 Descending Oakland Center
09:52AM 36.5894 -118.0286 114° Southeast 256 295 13,900 -840 Descending Oakland Center
09:54AM 36.5833 -118.0333 90° East  Level FlightAware Approximate
10:01AM 36.5887 -118.0494 90° East  Level Estimated